Terminal Aerodrome Forecast
Issued by NWS

Home | Current Version | Previous Version | Text Only | Print | Product List | Glossary On
Versions: 1 2 3 4 5 6 7 8 9 10 11 12 13 14
997
FTUS44 KLZK 260234 AAA
TAFLLQ
TAF AMD
KLLQ 260234Z 2603/2624 17008KT P6SM SCT040
     FM261000 18012G18KT P6SM BKN015
     FM261600 19012G18KT P6SM VCSH BKN025 OVC040
      TEMPO 2618/2622 5SM -SHRA BR OVC015
     FM262200 24015G25KT 5SM -RA SCT007 OVC015
      TEMPO 2622/2624 VRB25G40KT 1SM TSRA OVC007CB=

USA.gov is the U.S. government's official web portal to all federal, state and local government web resources and services.